createdAt,value
2023-04-14T00:00:15.738Z,95379.03
2023-04-14T00:02:49.144Z,95382.97
2023-04-14T00:05:19.311Z,95374.94
2023-04-14T00:07:47.736Z,95373.13
2023-04-14T00:10:16.206Z,95375.75
2023-04-14T00:12:44.600Z,95384.28
2023-04-14T00:15:13.107Z,95378.22
2023-04-14T00:17:41.541Z,95382.50
2023-04-14T00:20:10.895Z,95380.84
2023-04-14T00:22:40.620Z,95381.34
2023-04-14T00:25:09.770Z,95388.28
2023-04-14T00:27:38.161Z,95386.00
2023-04-14T00:30:07.961Z,95386.97
2023-04-14T00:32:36.550Z,95382.38
2023-04-14T00:35:05.290Z,95379.56
2023-04-14T00:37:33.820Z,95383.97
2023-04-14T00:40:03.783Z,95383.81
2023-04-14T00:42:43.076Z,95379.69
2023-04-14T00:45:12.609Z,95381.03
2023-04-14T00:47:49.245Z,95381.88
2023-04-14T00:50:19.591Z,95393.38
2023-04-14T00:52:51.261Z,95390.91
2023-04-14T00:55:21.886Z,95396.16
2023-04-14T00:57:51.162Z,95393.84
2023-04-14T01:00:20.211Z,95400.25
2023-04-14T01:02:48.622Z,95399.28
2023-04-14T01:05:17.383Z,95399.22
2023-04-14T01:07:48.405Z,95390.84
2023-04-14T01:10:17.287Z,95379.19
2023-04-14T01:13:13.141Z,95383.75
2023-04-14T01:15:48.465Z,95391.94
2023-04-14T01:18:22.447Z,95391.78
2023-04-14T01:20:53.760Z,95405.50
2023-04-14T01:23:28.857Z,95418.16
2023-04-14T01:26:19.585Z,95425.69
2023-04-14T01:29:38.340Z,95414.91
2023-04-14T01:32:10.615Z,95416.56
2023-04-14T01:34:45.878Z,95419.84
2023-04-14T01:37:16.825Z,95415.41
2023-04-14T01:39:51.030Z,95406.72
2023-04-14T01:42:28.836Z,95395.09
2023-04-14T01:45:00.671Z,95395.91
2023-04-14T01:47:32.390Z,95393.13
2023-04-14T01:50:02.244Z,95391.00
2023-04-14T01:52:32.563Z,95391.31
2023-04-14T01:55:05.795Z,95384.44
2023-04-14T01:57:35.734Z,95383.28
2023-04-14T02:00:05.501Z,95386.19
2023-04-14T02:02:37.850Z,95380.16
2023-04-14T02:05:09.956Z,95375.06
2023-04-14T02:07:39.983Z,95363.41
2023-04-14T02:10:11.428Z,95361.75
2023-04-14T02:12:52.194Z,95347.63
2023-04-14T02:15:30.978Z,95343.34
2023-04-14T02:18:01.956Z,95348.56
2023-04-14T02:20:30.793Z,95341.47
2023-04-14T02:22:59.460Z,95337.84
2023-04-14T02:25:33.576Z,95342.56
2023-04-14T02:28:06.477Z,95345.00
2023-04-14T02:30:39.632Z,95358.13
2023-04-14T02:33:13.158Z,95351.53
2023-04-14T02:35:45.864Z,95367.56
2023-04-14T02:38:20.477Z,95373.03
2023-04-14T02:40:49.533Z,95371.88
2023-04-14T02:43:21.633Z,95383.03
2023-04-14T02:45:53.830Z,95382.22
2023-04-14T02:48:29.210Z,95375.97
2023-04-14T02:51:00.134Z,95376.78
2023-04-14T02:53:31.073Z,95373.69
2023-04-14T02:56:00.318Z,95362.53
2023-04-14T02:58:30.275Z,95355.50
2023-04-14T03:00:59.207Z,95353.97
2023-04-14T03:03:31.347Z,95350.53
2023-04-14T03:06:00.270Z,95348.38
2023-04-14T03:08:30.156Z,95341.13
2023-04-14T03:11:00.013Z,95343.06
2023-04-14T03:13:32.159Z,95340.56
2023-04-14T03:16:00.876Z,95347.31
2023-04-14T03:18:32.115Z,95345.13
2023-04-14T03:21:02.586Z,95355.63
2023-04-14T03:23:32.281Z,95355.31
2023-04-14T03:26:03.333Z,95355.00
2023-04-14T03:28:37.031Z,95357.47
2023-04-14T03:31:07.305Z,95359.28
2023-04-14T03:33:38.700Z,95351.25
2023-04-14T03:36:09.071Z,95363.59
2023-04-14T03:38:38.041Z,95355.56
2023-04-14T03:41:09.677Z,95361.41
2023-04-14T03:43:39.282Z,95356.16
2023-04-14T03:46:07.799Z,95356.69
2023-04-14T03:48:42.638Z,95354.94
2023-04-14T03:51:15.079Z,95344.97
2023-04-14T03:53:46.412Z,95345.13
2023-04-14T03:56:16.626Z,95339.69
2023-04-14T03:58:49.402Z,95338.06
2023-04-14T04:01:19.470Z,95337.19
2023-04-14T04:03:49.852Z,95341.91
2023-04-14T04:06:18.670Z,95343.41
2023-04-14T04:08:50.631Z,95346.53
2023-04-14T04:11:20.856Z,95345.69
2023-04-14T04:13:50.233Z,95346.31
2023-04-14T04:16:19.791Z,95350.38
2023-04-14T04:18:51.324Z,95352.03
2023-04-14T04:21:21.415Z,95351.13
2023-04-14T04:23:53.308Z,95366.88
2023-04-14T04:26:23.521Z,95371.78
2023-04-14T04:28:52.530Z,95378.34
2023-04-14T04:31:23.241Z,95381.81
2023-04-14T04:34:03.107Z,95385.44
2023-04-14T04:36:32.986Z,95387.59
2023-04-14T04:39:01.633Z,95385.94
2023-04-14T04:41:31.820Z,95393.75
2023-04-14T04:44:00.285Z,95388.00
2023-04-14T04:46:46.152Z,95395.53
2023-04-14T04:49:15.895Z,95397.00
2023-04-14T04:51:44.382Z,95391.63
2023-04-14T04:54:12.867Z,95396.38
2023-04-14T04:56:41.215Z,95404.75
2023-04-14T04:59:09.939Z,95405.13
2023-04-14T05:01:38.462Z,95396.13
2023-04-14T05:04:07.340Z,95402.19
2023-04-14T05:06:38.218Z,95399.09
2023-04-14T05:09:06.974Z,95397.97
2023-04-14T05:11:36.190Z,95398.13
2023-04-14T05:14:04.822Z,95385.31
2023-04-14T05:16:33.539Z,95380.69
2023-04-14T05:19:03.041Z,95382.50
2023-04-14T05:21:31.757Z,95376.59
2023-04-14T05:24:01.683Z,95378.34
2023-04-14T05:26:52.064Z,95369.16
2023-04-14T05:29:19.591Z,95368.34
2023-04-14T05:31:48.399Z,95369.00
2023-04-14T05:34:16.848Z,95375.56
2023-04-14T05:36:45.459Z,95369.03
2023-04-14T05:39:15.160Z,95366.94
2023-04-14T05:41:43.597Z,95375.63
2023-04-14T05:44:11.979Z,95375.31
2023-04-14T05:46:41.278Z,95382.81
2023-04-14T05:49:09.744Z,95386.78
2023-04-14T05:51:41.492Z,95381.66
2023-04-14T05:54:09.888Z,95386.38
2023-04-14T05:56:40.252Z,95390.78
2023-04-14T05:59:09.040Z,95397.00
2023-04-14T06:01:37.450Z,95396.34
2023-04-14T06:04:06.249Z,95400.78
2023-04-14T06:06:35.193Z,95396.97
2023-04-14T06:09:03.660Z,95397.94
2023-04-14T06:11:34.287Z,95398.59
2023-04-14T06:14:05.464Z,95393.50
2023-04-14T06:16:34.696Z,95392.84
2023-04-14T06:19:03.733Z,95399.03
2023-04-14T06:21:34.011Z,95390.66
2023-04-14T06:24:02.377Z,95394.56
2023-04-14T06:26:34.481Z,95393.88
2023-04-14T06:29:07.469Z,95386.19
2023-04-14T06:31:36.035Z,95393.72
2023-04-14T06:34:04.454Z,95394.19
2023-04-14T06:36:34.754Z,95392.31
2023-04-14T06:39:03.439Z,95387.38
2023-04-14T06:41:34.955Z,95386.19
2023-04-14T06:44:04.817Z,95386.53
2023-04-14T06:46:36.058Z,95384.03
2023-04-14T06:49:04.847Z,95389.13
2023-04-14T06:51:36.727Z,95387.66
2023-04-14T06:54:05.373Z,95389.28
2023-04-14T06:56:33.801Z,95385.53
2023-04-14T06:59:02.473Z,95391.59
2023-04-14T07:01:33.178Z,95389.66
2023-04-14T07:04:07.479Z,95391.81
2023-04-14T07:06:36.453Z,95399.00
2023-04-14T07:09:05.030Z,95402.81
2023-04-14T07:11:34.275Z,95403.66
2023-04-14T07:14:03.087Z,95406.97
2023-04-14T07:16:33.592Z,95397.19
2023-04-14T07:19:04.360Z,95397.00
2023-04-14T07:21:33.977Z,95398.13
2023-04-14T07:24:02.617Z,95398.81
2023-04-14T07:26:31.579Z,95405.47
2023-04-14T07:29:00.030Z,95416.59
2023-04-14T07:31:29.264Z,95405.31
2023-04-14T07:33:59.292Z,95410.56
2023-04-14T07:36:28.070Z,95413.38
2023-04-14T07:38:56.466Z,95407.56
2023-04-14T07:41:25.655Z,95417.41
2023-04-14T07:43:55.753Z,95419.41
2023-04-14T07:46:24.255Z,95429.41
2023-04-14T07:48:52.702Z,95430.16
2023-04-14T07:51:22.752Z,95439.69
2023-04-14T07:53:53.097Z,95441.19
2023-04-14T07:56:22.390Z,95449.06
2023-04-14T07:58:50.887Z,95448.00
2023-04-14T08:01:19.368Z,95455.59
2023-04-14T08:03:48.081Z,95462.97
2023-04-14T08:06:16.912Z,95466.41
2023-04-14T08:08:46.649Z,95463.47
2023-04-14T08:11:15.069Z,95458.25
2023-04-14T08:13:44.400Z,95450.38
2023-04-14T08:16:12.932Z,95447.75
2023-04-14T08:18:41.542Z,95441.19
2023-04-14T08:21:10.029Z,95438.19
2023-04-14T08:23:38.412Z,95445.03
2023-04-14T08:26:08.163Z,95447.81
2023-04-14T08:28:37.262Z,95441.53
2023-04-14T08:31:05.810Z,95436.97
2023-04-14T08:33:34.900Z,95440.94
2023-04-14T08:36:03.321Z,95454.41
2023-04-14T08:38:32.853Z,95456.03
2023-04-14T08:41:03.743Z,95449.97
2023-04-14T08:43:36.551Z,95446.69
2023-04-14T08:46:06.127Z,95437.81
2023-04-14T08:48:37.756Z,95432.16
2023-04-14T08:51:11.361Z,95433.28
2023-04-14T08:53:45.184Z,95427.19
2023-04-14T08:56:16.339Z,95429.66
2023-04-14T08:58:47.325Z,95431.66
2023-04-14T09:01:16.775Z,95430.88
2023-04-14T09:03:46.118Z,95433.88
2023-04-14T09:06:15.341Z,95441.94
2023-04-14T09:08:44.550Z,95433.09
2023-04-14T09:11:16.810Z,95429.47
2023-04-14T09:13:50.180Z,95420.50
2023-04-14T09:16:22.454Z,95417.25
2023-04-14T09:18:51.121Z,95419.53
2023-04-14T09:21:30.432Z,95432.81
2023-04-14T09:24:11.060Z,95424.28
2023-04-14T09:26:40.584Z,95420.88
2023-04-14T09:29:10.414Z,95423.38
2023-04-14T09:31:39.052Z,95448.97
2023-04-14T09:34:16.715Z,95466.06
2023-04-14T09:37:01.057Z,95466.41
2023-04-14T09:39:29.737Z,95465.09
2023-04-14T09:41:58.280Z,95471.00
2023-04-14T09:44:28.477Z,95473.63
2023-04-14T09:47:01.044Z,95473.63
2023-04-14T09:49:30.326Z,95476.03
2023-04-14T09:52:05.257Z,95473.25
2023-04-14T09:54:35.964Z,95475.72
2023-04-14T09:57:04.645Z,95471.59
2023-04-14T09:59:36.860Z,95482.41
2023-04-14T10:02:07.911Z,95479.59
2023-04-14T10:04:37.432Z,95482.84
2023-04-14T10:07:08.539Z,95497.25
2023-04-14T10:09:38.526Z,95488.72
2023-04-14T10:12:12.166Z,95484.31
2023-04-14T10:14:42.736Z,95483.22
2023-04-14T10:17:11.867Z,95470.28
2023-04-14T10:19:40.761Z,95480.97
2023-04-14T10:22:09.315Z,95473.56
2023-04-14T10:24:38.182Z,95484.06
2023-04-14T10:27:07.342Z,95480.78
2023-04-14T10:29:36.073Z,95473.09
2023-04-14T10:32:08.955Z,95481.09
2023-04-14T10:34:42.038Z,95478.78
2023-04-14T10:37:15.107Z,95475.16
2023-04-14T10:39:43.828Z,95467.75
2023-04-14T10:42:12.377Z,95460.69
2023-04-14T10:44:40.807Z,95453.00
2023-04-14T10:47:10.866Z,95437.28
2023-04-14T10:49:41.324Z,95437.47
2023-04-14T10:52:33.783Z,95438.78
2023-04-14T10:55:08.932Z,95434.34
2023-04-14T10:57:41.259Z,95419.63
2023-04-14T11:00:26.251Z,95410.31
2023-04-14T11:03:03.821Z,95406.06
2023-04-14T11:05:34.548Z,95408.22
2023-04-14T11:08:13.925Z,95404.47
2023-04-14T11:10:48.158Z,95412.84
2023-04-14T11:13:17.740Z,95411.69
2023-04-14T11:15:57.837Z,95414.19
2023-04-14T11:18:44.136Z,95412.41
2023-04-14T11:21:16.843Z,95405.69
2023-04-14T11:23:45.596Z,95400.44
2023-04-14T11:26:14.688Z,95389.28
2023-04-14T11:28:44.514Z,95392.22
2023-04-14T11:31:15.549Z,95382.72
2023-04-14T11:33:46.294Z,95380.09
2023-04-14T11:36:14.742Z,95381.72
2023-04-14T11:38:44.009Z,95382.88
2023-04-14T11:41:16.312Z,95388.09
2023-04-14T11:43:49.049Z,95401.91
2023-04-14T11:46:20.691Z,95402.22
2023-04-14T11:48:55.500Z,95388.91
2023-04-14T11:51:30.679Z,95390.06
2023-04-14T11:54:00.967Z,95379.84
2023-04-14T11:56:31.355Z,95374.06
2023-04-14T11:59:03.413Z,95348.91
2023-04-14T12:01:32.626Z,95359.34
2023-04-14T12:04:02.912Z,95367.19
2023-04-14T12:06:38.732Z,95356.34
2023-04-14T12:09:10.335Z,95352.22
2023-04-14T12:11:38.963Z,95350.81
2023-04-14T12:14:07.518Z,95356.50
2023-04-14T12:16:36.935Z,95358.91
2023-04-14T12:19:06.798Z,95356.59
2023-04-14T12:21:35.260Z,95350.16
2023-04-14T12:24:03.816Z,95349.19
2023-04-14T12:26:32.657Z,95345.06
2023-04-14T12:29:02.106Z,95336.19
2023-04-14T12:31:31.243Z,95335.00
2023-04-14T12:34:04.169Z,95337.34
2023-04-14T12:36:49.485Z,95334.09
2023-04-14T12:39:18.439Z,95333.25
2023-04-14T12:41:47.182Z,95320.94
2023-04-14T12:44:20.524Z,95323.56
2023-04-14T12:46:52.977Z,95317.44
2023-04-14T12:49:35.011Z,95320.06
2023-04-14T12:52:05.806Z,95314.72
2023-04-14T12:54:48.106Z,95312.31
2023-04-14T12:57:16.516Z,95313.59
2023-04-14T12:59:45.726Z,95305.69
2023-04-14T13:02:14.333Z,95314.41
2023-04-14T13:04:43.390Z,95311.13
2023-04-14T13:07:13.195Z,95300.59
2023-04-14T13:09:42.516Z,95301.25
2023-04-14T13:12:10.951Z,95292.63
2023-04-14T13:14:39.628Z,95293.19
2023-04-14T13:17:10.469Z,95293.75
2023-04-14T13:19:40.338Z,95283.47
2023-04-14T13:22:08.719Z,95280.97
2023-04-14T13:24:41.475Z,95278.59
2023-04-14T13:27:10.016Z,95275.78
2023-04-14T13:29:41.159Z,95274.97
2023-04-14T13:32:11.469Z,95278.25
2023-04-14T13:34:40.927Z,95294.06
2023-04-14T13:37:09.340Z,95289.13
2023-04-14T13:39:40.290Z,95295.41
2023-04-14T13:42:08.751Z,95294.03
2023-04-14T13:44:39.208Z,95294.38
2023-04-14T13:47:07.762Z,95289.25
2023-04-14T13:49:39.964Z,95292.31
2023-04-14T13:52:09.469Z,95287.38
2023-04-14T13:54:41.933Z,95281.78
2023-04-14T13:57:10.601Z,95278.88
2023-04-14T13:59:40.464Z,95276.19
2023-04-14T14:02:09.044Z,95278.69
2023-04-14T14:04:40.649Z,95277.13
2023-04-14T14:07:09.201Z,95275.41
2023-04-14T14:09:40.073Z,95272.50
2023-04-14T14:12:12.672Z,95284.28
2023-04-14T14:14:41.359Z,95280.06
2023-04-14T14:17:10.206Z,95275.66
2023-04-14T14:19:39.972Z,95280.53
2023-04-14T14:22:08.519Z,95279.72
2023-04-14T14:24:37.276Z,95271.34
2023-04-14T14:27:07.205Z,95265.81
2023-04-14T14:29:37.471Z,95254.69
2023-04-14T14:32:06.513Z,95258.00
2023-04-14T14:34:34.948Z,95253.47
2023-04-14T14:37:03.347Z,95248.88
2023-04-14T14:39:32.665Z,95252.34
2023-04-14T14:42:01.265Z,95245.25
2023-04-14T14:44:31.319Z,95233.03
2023-04-14T14:46:59.870Z,95236.88
2023-04-14T14:49:28.383Z,95252.19
2023-04-14T14:51:57.107Z,95259.50
2023-04-14T14:54:25.557Z,95269.00
2023-04-14T14:56:53.889Z,95270.38
2023-04-14T14:59:22.324Z,95290.78
2023-04-14T15:01:52.111Z,95293.13
2023-04-14T15:04:20.627Z,95293.69
2023-04-14T15:06:49.134Z,95292.06
2023-04-14T15:09:17.480Z,95285.69
2023-04-14T15:11:47.168Z,95287.53
2023-04-14T15:14:15.595Z,95286.88
2023-04-14T15:16:44.048Z,95289.97
2023-04-14T15:19:15.477Z,95294.22
2023-04-14T15:21:44.271Z,95290.31
2023-04-14T15:24:12.939Z,95292.31
2023-04-14T15:26:41.311Z,95305.63
2023-04-14T15:29:09.953Z,95310.72
2023-04-14T15:31:39.925Z,95308.19
2023-04-14T15:34:08.380Z,95320.97
2023-04-14T15:36:38.318Z,95319.81
2023-04-14T15:39:07.123Z,95322.06
2023-04-14T15:41:36.360Z,95324.38
2023-04-14T15:44:04.929Z,95323.53
2023-04-14T15:46:33.253Z,95327.16
2023-04-14T15:49:01.564Z,95331.63
2023-04-14T15:51:30.047Z,95329.66
2023-04-14T15:54:00.154Z,95330.91
2023-04-14T15:56:29.869Z,95323.09
2023-04-14T15:58:58.501Z,95320.31
2023-04-14T16:01:26.937Z,95313.59
2023-04-14T16:03:55.697Z,95323.81
2023-04-14T16:06:24.354Z,95321.06
2023-04-14T16:08:53.389Z,95321.41
2023-04-14T16:11:24.015Z,95322.88
2023-04-14T16:13:53.353Z,95319.88
2023-04-14T16:16:22.068Z,95315.81
2023-04-14T16:18:50.826Z,95304.97
2023-04-14T16:21:19.278Z,95292.47
2023-04-14T16:23:47.618Z,95304.00
2023-04-14T16:26:17.273Z,95300.34
2023-04-14T16:28:47.093Z,95295.09
2023-04-14T16:31:16.109Z,95289.84
2023-04-14T16:33:44.572Z,95297.25
2023-04-14T16:36:12.920Z,95293.31
2023-04-14T16:38:41.489Z,95301.22
2023-04-14T16:41:10.097Z,95298.44
2023-04-14T16:43:38.810Z,95304.69
2023-04-14T16:46:08.893Z,95304.84
2023-04-14T16:48:40.531Z,95304.34
2023-04-14T16:51:10.863Z,95307.44
2023-04-14T16:53:41.178Z,95308.25
2023-04-14T16:56:11.324Z,95307.59
2023-04-14T16:58:40.263Z,95306.78
2023-04-14T17:01:10.276Z,95309.25
2023-04-14T17:03:39.305Z,95322.88
2023-04-14T17:06:07.999Z,95314.53
2023-04-14T17:08:36.457Z,95318.81
2023-04-14T17:11:04.940Z,95319.16
2023-04-14T17:13:33.444Z,95317.06
2023-04-14T17:16:09.010Z,95315.59
2023-04-14T17:18:41.504Z,95308.69
2023-04-14T17:21:09.960Z,95304.75
2023-04-14T17:23:39.207Z,95297.22
2023-04-14T17:26:07.872Z,95300.03
2023-04-14T17:28:36.276Z,95304.66
2023-04-14T17:31:11.342Z,95302.00
2023-04-14T17:33:43.004Z,95297.22
2023-04-14T17:36:16.575Z,95297.88
2023-04-14T17:38:45.898Z,95298.53
2023-04-14T17:41:14.839Z,95295.06
2023-04-14T17:43:43.720Z,95300.50
2023-04-14T17:46:12.197Z,95294.41
2023-04-14T17:48:43.477Z,95290.00
2023-04-14T17:51:12.600Z,95284.91
2023-04-14T17:53:43.061Z,95281.78
2023-04-14T17:56:12.756Z,95290.00
2023-04-14T17:58:42.898Z,95296.59
2023-04-14T18:01:11.796Z,95286.63
2023-04-14T18:03:43.809Z,95301.59
2023-04-14T18:06:12.445Z,95300.41
2023-04-14T18:08:42.373Z,95300.75
2023-04-14T18:11:12.099Z,95297.94
2023-04-14T18:13:41.637Z,95291.50
2023-04-14T18:16:10.704Z,95289.09
2023-04-14T18:18:39.425Z,95287.59
2023-04-14T18:21:09.536Z,95284.97
2023-04-14T18:23:38.366Z,95296.50
2023-04-14T18:28:39.064Z,95291.41
2023-04-14T18:31:08.760Z,95296.31
2023-04-14T18:33:37.172Z,95300.75
2023-04-14T18:36:05.556Z,95301.91
2023-04-14T18:38:35.367Z,95295.00
2023-04-14T18:41:04.815Z,95292.38
2023-04-14T18:43:34.003Z,95287.31
2023-04-14T18:46:02.595Z,95282.69
2023-04-14T18:48:31.747Z,95282.50
2023-04-14T18:51:04.343Z,95283.19
2023-04-14T18:53:32.876Z,95293.34
2023-04-14T18:56:02.839Z,95296.78
2023-04-14T18:58:31.765Z,95304.84
2023-04-14T19:01:00.271Z,95299.59
2023-04-14T19:03:32.085Z,95307.13
2023-04-14T19:06:00.581Z,95304.97
2023-04-14T19:08:29.638Z,95307.06
2023-04-14T19:10:59.322Z,95316.28
2023-04-14T19:13:29.172Z,95316.75
2023-04-14T19:16:11.535Z,95327.09
2023-04-14T19:18:41.108Z,95329.72
2023-04-14T19:21:09.674Z,95329.72
2023-04-14T19:23:41.190Z,95329.72
2023-04-14T19:26:11.455Z,95319.03
2023-04-14T19:28:42.662Z,95315.44
2023-04-14T19:31:12.538Z,95320.50
2023-04-14T19:33:50.051Z,95323.97
2023-04-14T19:36:19.326Z,95322.78
2023-04-14T19:38:47.721Z,95325.25
2023-04-14T19:41:16.272Z,95323.44
2023-04-14T19:43:46.231Z,95314.53
2023-04-14T19:46:15.132Z,95316.34
2023-04-14T19:48:45.205Z,95308.47
2023-04-14T19:51:13.640Z,95306.66
2023-04-14T19:53:43.453Z,95299.75
2023-04-14T19:56:12.783Z,95298.75
2023-04-14T19:58:41.757Z,95303.38
2023-04-14T20:01:11.754Z,95310.44
2023-04-14T20:04:06.378Z,95303.75
2023-04-14T20:06:30.630Z,95312.59
2023-04-14T20:08:59.299Z,95320.69
2023-04-14T20:11:28.227Z,95323.13
2023-04-14T20:13:56.718Z,95326.41
2023-04-14T20:16:26.669Z,95321.78
2023-04-14T20:18:55.553Z,95308.00
2023-04-14T20:21:24.159Z,95301.91
2023-04-14T20:23:52.572Z,95320.69
2023-04-14T20:26:21.562Z,95320.44
2023-04-14T20:28:50.422Z,95314.69
2023-04-14T20:31:18.887Z,95314.31
2023-04-14T20:33:48.946Z,95321.72
2023-04-14T20:36:17.371Z,95316.28
2023-04-14T20:38:45.824Z,95311.47
2023-04-14T20:41:14.215Z,95316.75
2023-04-14T20:43:46.612Z,95325.81
2023-04-14T20:46:15.616Z,95329.44
2023-04-14T20:48:44.646Z,95327.47
2023-04-14T20:51:14.683Z,95349.13
2023-04-14T20:53:45.214Z,95337.78
2023-04-14T20:56:13.616Z,95342.41
2023-04-14T20:58:43.705Z,95338.31
2023-04-14T21:01:12.223Z,95332.25
2023-04-14T21:03:40.752Z,95344.38
2023-04-14T21:06:09.596Z,95338.13
2023-04-14T21:08:40.054Z,95328.44
2023-04-14T21:11:16.719Z,95320.53
2023-04-14T21:15:28.493Z,95328.75
2023-04-14T21:16:35.035Z,95327.66
2023-04-14T21:19:04.399Z,95317.81
2023-04-14T21:21:33.358Z,95317.34
2023-04-14T21:24:03.369Z,95318.50
2023-04-14T21:26:31.994Z,95323.28
2023-04-14T21:29:01.006Z,95322.97
2023-04-14T21:31:29.624Z,95332.53
2023-04-14T21:33:58.040Z,95322.34
2023-04-14T21:36:27.414Z,95308.75
2023-04-14T21:38:56.528Z,95311.53
2023-04-14T21:41:26.433Z,95305.94
2023-04-14T21:43:54.803Z,95302.72
2023-04-14T21:46:23.427Z,95300.41
2023-04-14T21:48:51.936Z,95305.66
2023-04-14T21:51:20.297Z,95299.59
2023-04-14T21:53:48.771Z,95303.88
2023-04-14T21:56:17.583Z,95303.03
2023-04-14T21:58:47.330Z,95297.78
2023-04-14T22:01:15.859Z,95286.94
2023-04-14T22:03:45.109Z,95292.19
2023-04-14T22:06:14.352Z,95295.63
2023-04-14T22:08:44.280Z,95286.78
2023-04-14T22:11:12.793Z,95285.94
2023-04-14T22:13:41.255Z,95290.22
2023-04-14T22:16:11.510Z,95282.50
2023-04-14T22:18:40.681Z,95277.09
2023-04-14T22:21:12.090Z,95277.59
2023-04-14T22:23:40.611Z,95279.75
2023-04-14T22:26:09.073Z,95262.50
2023-04-14T22:28:37.627Z,95255.94
2023-04-14T22:31:06.536Z,95263.31
2023-04-14T22:33:36.428Z,95258.59
2023-04-14T22:36:07.012Z,95265.66
2023-04-14T22:38:35.485Z,95269.25
2023-04-14T22:41:03.876Z,95270.06
2023-04-14T22:43:32.326Z,95273.69
2023-04-14T22:46:00.797Z,95269.75
2023-04-14T22:48:29.187Z,95276.47
2023-04-14T22:50:58.941Z,95272.88
2023-04-14T22:53:27.408Z,95273.69
2023-04-14T22:55:55.791Z,95274.31
2023-04-14T22:58:24.186Z,95276.94
2023-04-14T23:00:52.588Z,95267.25
2023-04-14T23:03:21.363Z,95273.00
2023-04-14T23:05:51.821Z,95265.75
2023-04-14T23:08:21.586Z,95263.97
2023-04-14T23:10:50.079Z,95269.03
2023-04-14T23:13:18.461Z,95269.88
2023-04-14T23:15:46.892Z,95261.16
2023-04-14T23:18:21.361Z,95268.22
2023-04-14T23:20:49.710Z,95267.41
2023-04-14T23:23:18.053Z,95262.97
2023-04-14T23:25:47.880Z,95259.69
2023-04-14T23:28:16.398Z,95266.13
2023-04-14T23:30:45.054Z,95263.66
2023-04-14T23:33:13.757Z,95259.69
2023-04-14T23:35:42.391Z,95269.88
2023-04-14T23:38:10.733Z,95256.22
2023-04-14T23:40:39.144Z,95259.50
2023-04-14T23:43:08.922Z,95260.31
2023-04-14T23:45:37.881Z,95246.69
2023-04-14T23:48:06.845Z,95250.78
2023-04-14T23:50:58.893Z,95241.91
2023-04-14T23:53:23.931Z,95248.63
2023-04-14T23:55:52.932Z,95240.75
2023-04-14T23:58:26.861Z,95241.56
